createdAt,value
2018-12-22T00:00:55.211Z,11.80
2018-12-22T00:01:55.199Z,11.88
2018-12-22T00:02:55.231Z,11.82
2018-12-22T00:03:55.178Z,11.80
2018-12-22T00:04:55.169Z,11.79
2018-12-22T00:05:55.157Z,11.79
2018-12-22T00:06:55.147Z,11.73
2018-12-22T00:07:55.132Z,11.80
2018-12-22T00:08:55.391Z,11.74
2018-12-22T00:09:55.113Z,11.79
2018-12-22T00:10:55.100Z,11.80
2018-12-22T00:11:55.089Z,11.77
2018-12-22T00:12:55.079Z,11.66
2018-12-22T00:13:55.068Z,11.64
2018-12-22T00:14:55.097Z,11.67
2018-12-22T00:15:55.096Z,11.61
2018-12-22T00:16:55.035Z,11.70
2018-12-22T00:17:55.023Z,11.71
2018-12-22T00:18:55.024Z,11.59
2018-12-22T00:19:55.003Z,11.61
2018-12-22T00:20:54.991Z,11.58
2018-12-22T00:21:55.020Z,11.61
2018-12-22T00:22:54.968Z,11.62
2018-12-22T00:23:54.960Z,11.64
2018-12-22T00:24:54.947Z,11.58
2018-12-22T00:25:54.938Z,11.64
2018-12-22T00:26:54.924Z,11.66
2018-12-22T00:27:54.958Z,11.67
2018-12-22T00:28:55.185Z,11.64
2018-12-22T00:29:54.894Z,11.67
2018-12-22T00:30:54.889Z,11.69
2018-12-22T00:31:54.872Z,11.69
2018-12-22T00:32:54.861Z,11.67
2018-12-22T00:33:54.851Z,11.62
2018-12-22T00:34:54.888Z,11.66
2018-12-22T00:35:54.829Z,11.69
2018-12-22T00:36:54.816Z,11.77
2018-12-22T00:37:54.804Z,11.70
2018-12-22T00:38:54.797Z,11.73
2018-12-22T00:39:54.781Z,11.76
2018-12-22T00:40:54.814Z,11.67
2018-12-22T00:41:54.761Z,11.71
2018-12-22T00:42:54.753Z,11.70
2018-12-22T00:43:54.742Z,11.69
2018-12-22T00:44:54.768Z,11.59
2018-12-22T00:45:54.718Z,11.59
2018-12-22T00:46:54.707Z,11.61
2018-12-22T00:47:54.696Z,11.62
2018-12-22T00:48:54.685Z,11.56
2018-12-22T00:49:54.719Z,11.67
2018-12-22T00:50:54.666Z,11.70
2018-12-22T00:51:54.651Z,11.70
2018-12-22T00:52:54.641Z,11.64
2018-12-22T00:53:54.654Z,11.71
2018-12-22T00:54:54.620Z,11.67
2018-12-22T00:55:54.657Z,11.74
2018-12-22T00:56:54.595Z,11.66
2018-12-22T00:57:54.587Z,11.66
2018-12-22T00:58:54.575Z,11.77
2018-12-22T00:59:54.563Z,11.67
2018-12-22T01:00:54.554Z,11.77
2018-12-22T01:01:54.582Z,11.77
2018-12-22T01:02:54.558Z,11.74
2018-12-22T01:03:54.520Z,11.73
2018-12-22T01:04:54.542Z,11.77
2018-12-22T01:05:54.496Z,11.73
2018-12-22T01:06:54.488Z,11.74
2018-12-22T01:07:54.519Z,11.66
2018-12-22T01:08:54.465Z,11.73
2018-12-22T01:09:54.453Z,11.64
2018-12-22T01:10:54.485Z,11.66
2018-12-22T01:11:54.483Z,11.70
2018-12-22T01:12:54.422Z,11.80
2018-12-22T01:13:54.410Z,11.76
2018-12-22T01:14:54.398Z,11.76
2018-12-22T01:15:54.387Z,11.76
2018-12-22T01:16:54.382Z,11.79
2018-12-22T01:17:54.405Z,11.87
2018-12-22T01:18:54.636Z,11.79
2018-12-22T01:19:54.342Z,11.85
2018-12-22T01:20:54.334Z,11.85
2018-12-22T01:21:54.323Z,11.79
2018-12-22T01:22:54.309Z,11.77
2018-12-22T01:23:54.300Z,11.79
2018-12-22T01:24:54.329Z,11.70
2018-12-22T01:25:54.276Z,11.74
2018-12-22T01:26:54.264Z,11.74
2018-12-22T01:27:54.296Z,11.82
2018-12-22T01:28:54.253Z,11.79
2018-12-22T01:29:54.232Z,11.84
2018-12-22T01:30:54.223Z,11.77
2018-12-22T01:31:54.211Z,11.88
2018-12-22T01:32:54.198Z,11.85
2018-12-22T01:33:54.230Z,11.96
2018-12-22T01:34:54.177Z,11.87
2018-12-22T01:35:54.166Z,11.89
2018-12-22T01:36:54.155Z,11.87
2018-12-22T01:37:54.144Z,11.88
2018-12-22T01:38:54.134Z,11.85
2018-12-22T01:39:54.168Z,11.87
2018-12-22T01:40:54.110Z,11.79
2018-12-22T01:41:54.100Z,11.76
2018-12-22T01:42:54.128Z,11.85
2018-12-22T01:43:54.078Z,11.79
2018-12-22T01:44:54.067Z,11.79
2018-12-22T01:45:54.058Z,11.79
2018-12-22T01:46:54.044Z,11.77
2018-12-22T01:47:54.034Z,11.79
2018-12-22T01:48:54.291Z,11.77
2018-12-22T01:49:54.011Z,11.76
2018-12-22T01:50:53.999Z,11.88
2018-12-22T01:51:53.992Z,11.84
2018-12-22T01:52:53.980Z,11.80
2018-12-22T01:53:53.968Z,11.91
2018-12-22T01:54:54.002Z,11.84
2018-12-22T01:55:53.945Z,11.87
2018-12-22T01:56:53.943Z,11.89
2018-12-22T01:57:53.923Z,11.85
2018-12-22T01:58:53.912Z,11.93
2018-12-22T01:59:53.899Z,11.99
2018-12-22T02:00:53.932Z,11.96
2018-12-22T02:01:53.878Z,12.04
2018-12-22T02:02:53.868Z,12.00
2018-12-22T02:03:53.855Z,11.96
2018-12-22T02:04:53.854Z,12.00
2018-12-22T02:05:53.834Z,12.00
2018-12-22T02:06:53.869Z,12.04
2018-12-22T02:07:53.814Z,11.87
2018-12-22T02:08:53.802Z,11.93
2018-12-22T02:09:53.793Z,11.95
2018-12-22T02:10:53.781Z,11.84
2018-12-22T02:11:53.768Z,11.77
2018-12-22T02:12:53.801Z,11.76
2018-12-22T02:13:53.746Z,11.77
2018-12-22T02:14:53.734Z,11.73
2018-12-22T02:15:53.765Z,11.73
2018-12-22T02:16:53.711Z,11.77
2018-12-22T02:17:53.702Z,11.82
2018-12-22T02:18:53.690Z,11.84
2018-12-22T02:19:53.699Z,11.74
2018-12-22T02:20:53.667Z,11.76
2018-12-22T02:21:53.701Z,11.77
2018-12-22T02:22:53.651Z,11.77
2018-12-22T02:23:53.634Z,11.84
2018-12-22T02:24:53.621Z,11.77
2018-12-22T02:25:53.612Z,11.77
2018-12-22T02:26:53.602Z,11.87
2018-12-22T02:27:53.632Z,11.89
2018-12-22T02:28:56.838Z,11.88
2018-12-22T02:29:53.568Z,11.96
2018-12-22T02:30:53.556Z,11.89
2018-12-22T02:31:53.655Z,11.85
2018-12-22T02:32:53.573Z,11.87
2018-12-22T02:33:53.524Z,11.88
2018-12-22T02:34:53.514Z,11.96
2018-12-22T02:35:53.501Z,11.88
2018-12-22T02:36:53.490Z,11.99
2018-12-22T02:37:53.481Z,11.93
2018-12-22T02:38:53.509Z,11.87
2018-12-22T02:39:53.465Z,11.95
2018-12-22T02:40:53.446Z,11.87
2018-12-22T02:41:53.441Z,11.93
2018-12-22T02:42:53.423Z,11.95
2018-12-22T02:43:53.411Z,11.88
2018-12-22T02:44:53.473Z,11.89
2018-12-22T02:45:53.389Z,11.84
2018-12-22T02:46:53.387Z,11.87
2018-12-22T02:47:53.366Z,11.89
2018-12-22T02:48:53.358Z,11.88
2018-12-22T02:49:53.348Z,11.82
2018-12-22T02:50:53.390Z,11.85
2018-12-22T02:51:53.333Z,11.76
2018-12-22T02:52:53.311Z,11.85
2018-12-22T02:53:53.300Z,11.89
2018-12-22T02:54:53.291Z,11.80
2018-12-22T02:55:53.283Z,11.85
2018-12-22T02:56:53.316Z,11.84
2018-12-22T02:57:53.254Z,11.84
2018-12-22T02:58:53.243Z,11.84
2018-12-22T02:59:53.237Z,11.88
2018-12-22T03:00:53.221Z,11.97
2018-12-22T03:01:53.214Z,12.03
2018-12-22T03:02:53.228Z,11.89
2018-12-22T03:03:53.218Z,11.95
2018-12-22T03:04:53.176Z,11.89
2018-12-22T03:05:53.165Z,11.91
2018-12-22T03:06:53.184Z,11.91
2018-12-22T03:07:53.144Z,11.96
2018-12-22T03:08:53.134Z,11.93
2018-12-22T03:09:53.133Z,11.93
2018-12-22T03:10:53.108Z,11.89
2018-12-22T03:11:53.099Z,11.97
2018-12-22T03:12:53.129Z,11.89
2018-12-22T03:13:53.076Z,11.95
2018-12-22T03:14:53.065Z,11.87
2018-12-22T03:15:53.053Z,11.89
2018-12-22T03:16:53.049Z,11.93
2018-12-22T03:17:53.030Z,11.96
2018-12-22T03:18:53.049Z,11.96
2018-12-22T03:19:53.009Z,11.97
2018-12-22T03:20:52.997Z,11.99
2018-12-22T03:21:52.985Z,11.97
2018-12-22T03:22:52.974Z,11.99
2018-12-22T03:23:52.994Z,12.05
2018-12-22T03:24:52.951Z,11.99
2018-12-22T03:25:52.942Z,12.07
2018-12-22T03:26:52.930Z,11.95
2018-12-22T03:27:52.948Z,12.10
2018-12-22T03:28:52.910Z,12.00
2018-12-22T03:29:52.898Z,12.05
2018-12-22T03:30:52.915Z,12.05
2018-12-22T03:31:52.875Z,12.00
2018-12-22T03:32:52.893Z,12.10
2018-12-22T03:33:52.854Z,11.97
2018-12-22T03:34:52.843Z,12.07
2018-12-22T03:35:52.828Z,12.05
2018-12-22T03:36:52.864Z,12.07
2018-12-22T03:37:52.813Z,12.11
2018-12-22T03:38:52.796Z,12.05
2018-12-22T03:39:52.816Z,12.08
2018-12-22T03:40:52.775Z,12.04
2018-12-22T03:41:52.763Z,12.05
2018-12-22T03:42:52.825Z,11.99
2018-12-22T03:43:52.742Z,11.93
2018-12-22T03:44:52.729Z,11.91
2018-12-22T03:45:52.718Z,11.93
2018-12-22T03:46:52.707Z,11.91
2018-12-22T03:47:52.699Z,11.93
2018-12-22T03:48:52.719Z,11.89
2018-12-22T03:49:52.674Z,11.84
2018-12-22T03:50:52.663Z,11.77
2018-12-22T03:51:52.658Z,11.76
2018-12-22T03:52:52.690Z,11.61
2018-12-22T03:53:52.634Z,11.70
2018-12-22T03:54:52.649Z,11.56
2018-12-22T03:55:52.605Z,11.58
2018-12-22T03:56:52.599Z,11.56
2018-12-22T03:57:52.585Z,11.55
2018-12-22T03:58:52.575Z,11.51
2018-12-22T03:59:52.564Z,11.51
2018-12-22T04:00:52.587Z,11.54
2018-12-22T04:01:52.568Z,11.40
2018-12-22T04:02:52.531Z,11.48
2018-12-22T04:03:52.518Z,11.46
2018-12-22T04:04:52.540Z,11.46
2018-12-22T04:05:52.496Z,11.48
2018-12-22T04:06:52.486Z,11.51
2018-12-22T04:07:52.501Z,11.41
2018-12-22T04:08:52.495Z,11.48
2018-12-22T04:09:52.453Z,11.48
2018-12-22T04:10:52.441Z,11.56
2018-12-22T04:11:52.429Z,11.48
2018-12-22T04:12:52.417Z,11.43
2018-12-22T04:13:52.404Z,11.52
2018-12-22T04:14:52.428Z,11.43
2018-12-22T04:15:52.487Z,11.51
2018-12-22T04:16:52.372Z,11.49
2018-12-22T04:17:52.401Z,11.54
2018-12-22T04:18:52.351Z,11.56
2018-12-22T04:19:52.338Z,11.56
2018-12-22T04:20:52.326Z,11.52
2018-12-22T04:21:52.316Z,11.48
2018-12-22T04:22:52.312Z,11.54
2018-12-22T04:23:52.323Z,11.55
2018-12-22T04:24:52.310Z,11.55
2018-12-22T04:25:52.270Z,11.66
2018-12-22T04:26:52.264Z,11.58
2018-12-22T04:27:52.247Z,11.54
2018-12-22T04:28:52.267Z,11.61
2018-12-22T04:29:52.326Z,11.59
2018-12-22T04:30:52.213Z,11.61
2018-12-22T04:31:52.210Z,11.58
2018-12-22T04:32:52.192Z,11.67
2018-12-22T04:33:52.184Z,11.61
2018-12-22T04:34:52.177Z,11.58
2018-12-22T04:35:52.195Z,11.67
2018-12-22T04:36:52.149Z,11.58
2018-12-22T04:37:52.146Z,11.64
2018-12-22T04:38:52.125Z,11.66
2018-12-22T04:39:52.143Z,11.70
2018-12-22T04:40:52.106Z,11.71
2018-12-22T04:41:52.091Z,11.70
2018-12-22T04:42:52.128Z,11.56
2018-12-22T04:43:52.098Z,11.71
2018-12-22T04:44:52.057Z,11.66
2018-12-22T04:45:52.050Z,11.67
2018-12-22T04:46:52.038Z,11.74
2018-12-22T04:47:52.294Z,11.77
2018-12-22T04:48:52.015Z,11.80
2018-12-22T04:49:52.002Z,11.87
2018-12-22T04:50:51.994Z,11.89
2018-12-22T04:51:51.982Z,11.95
2018-12-22T04:52:51.970Z,11.87
2018-12-22T04:53:51.987Z,11.97
2018-12-22T04:54:51.947Z,11.91
2018-12-22T04:55:51.936Z,11.95
2018-12-22T04:56:51.923Z,11.93
2018-12-22T04:57:51.912Z,12.00
2018-12-22T04:58:52.168Z,12.05
2018-12-22T04:59:51.890Z,12.05
2018-12-22T05:00:51.880Z,12.00
2018-12-22T05:01:51.870Z,12.10
2018-12-22T05:02:51.863Z,12.07
2018-12-22T05:03:51.844Z,12.10
2018-12-22T05:04:51.868Z,12.04
2018-12-22T05:05:51.827Z,12.05
2018-12-22T05:06:51.813Z,12.00
2018-12-22T05:07:51.836Z,12.03
2018-12-22T05:08:51.793Z,12.13
2018-12-22T05:09:51.780Z,12.21
2018-12-22T05:10:51.768Z,12.18
2018-12-22T05:11:51.789Z,12.14
2018-12-22T05:12:51.750Z,12.28
2018-12-22T05:13:51.735Z,12.22
2018-12-22T05:14:51.733Z,12.32
2018-12-22T05:15:51.712Z,12.33
2018-12-22T05:16:51.701Z,12.30
2018-12-22T05:17:51.720Z,12.36
2018-12-22T05:18:51.679Z,12.29
2018-12-22T05:19:51.674Z,12.33
2018-12-22T05:20:51.659Z,12.35
2018-12-22T05:21:51.652Z,12.35
2018-12-22T05:22:51.666Z,12.29
2018-12-22T05:23:51.626Z,12.41
2018-12-22T05:24:51.614Z,12.33
2018-12-22T05:25:51.604Z,12.30
2018-12-22T05:26:51.592Z,12.28
2018-12-22T05:27:51.583Z,12.26
2018-12-22T05:28:51.599Z,12.36
2018-12-22T05:29:52.239Z,12.33
2018-12-22T05:30:51.589Z,12.30
2018-12-22T05:31:51.535Z,12.29
2018-12-22T05:32:51.526Z,12.22
2018-12-22T05:33:51.514Z,12.17
2018-12-22T05:34:51.503Z,12.13
2018-12-22T05:35:51.494Z,12.23
2018-12-22T05:36:51.513Z,12.17
2018-12-22T05:37:51.468Z,12.23
2018-12-22T05:38:51.490Z,12.18
2018-12-22T05:39:51.447Z,12.28
2018-12-22T05:40:51.441Z,12.25
2018-12-22T05:41:51.424Z,12.18
2018-12-22T05:42:51.443Z,12.13
2018-12-22T05:43:51.401Z,12.08
2018-12-22T05:44:51.394Z,12.00
2018-12-22T05:45:51.384Z,11.89
2018-12-22T05:46:51.369Z,12.05
2018-12-22T05:47:51.390Z,12.03
2018-12-22T05:48:51.353Z,11.93
2018-12-22T05:49:51.335Z,12.04
2018-12-22T05:50:51.424Z,11.97
2018-12-22T05:51:51.319Z,12.08
2018-12-22T05:52:51.304Z,12.14
2018-12-22T05:53:51.326Z,12.07
2018-12-22T05:54:51.280Z,12.00
2018-12-22T05:55:51.269Z,12.08
2018-12-22T05:56:51.260Z,12.03
2018-12-22T05:57:51.248Z,12.05
2018-12-22T05:58:51.239Z,11.93
2018-12-22T05:59:51.311Z,11.95
2018-12-22T06:00:51.215Z,11.91
2018-12-22T06:01:51.206Z,11.96
2018-12-22T06:02:51.194Z,11.89
2018-12-22T06:03:51.189Z,11.77
2018-12-22T06:04:51.202Z,11.93
2018-12-22T06:05:51.163Z,12.08
2018-12-22T06:06:51.177Z,12.07
2018-12-22T06:07:51.135Z,12.07
2018-12-22T06:08:51.129Z,12.05
2018-12-22T06:09:51.120Z,11.99
2018-12-22T06:10:51.102Z,12.03
2018-12-22T06:11:51.097Z,12.04
2018-12-22T06:12:51.117Z,11.99
2018-12-22T06:13:51.071Z,12.05
2018-12-22T06:14:51.061Z,11.91
2018-12-22T06:15:51.163Z,12.03
2018-12-22T06:16:51.040Z,11.88
2018-12-22T06:17:51.056Z,11.87
2018-12-22T06:18:51.022Z,12.07
2018-12-22T06:19:51.008Z,12.00
2018-12-22T06:20:50.994Z,12.13
2018-12-22T06:21:50.981Z,12.18
2018-12-22T06:22:51.006Z,12.14
2018-12-22T06:23:50.989Z,12.14
2018-12-22T06:24:50.954Z,12.23
2018-12-22T06:25:50.936Z,12.23
2018-12-22T06:26:50.926Z,12.15
2018-12-22T06:27:50.915Z,12.13
2018-12-22T06:28:50.912Z,12.13
2018-12-22T06:29:50.924Z,12.17
2018-12-22T06:30:50.919Z,12.15
2018-12-22T06:31:50.889Z,12.15
2018-12-22T06:32:50.861Z,12.14
2018-12-22T06:33:50.899Z,12.11
2018-12-22T06:34:50.841Z,12.11
2018-12-22T06:35:50.824Z,12.21
2018-12-22T06:36:50.816Z,12.15
2018-12-22T06:37:50.811Z,12.03
2018-12-22T06:38:50.794Z,12.08
2018-12-22T06:39:50.814Z,12.00
2018-12-22T06:40:50.799Z,12.00
2018-12-22T06:41:50.757Z,12.07
2018-12-22T06:42:50.745Z,11.96
2018-12-22T06:43:50.775Z,11.93
2018-12-22T06:44:50.733Z,11.96
2018-12-22T06:45:50.715Z,11.97
2018-12-22T06:46:50.703Z,11.96
2018-12-22T06:47:50.700Z,12.00
2018-12-22T06:48:50.685Z,12.08
2018-12-22T06:49:50.704Z,11.99
2018-12-22T06:50:50.665Z,11.97
2018-12-22T06:51:50.645Z,11.99
2018-12-22T06:52:50.641Z,11.95
2018-12-22T06:53:50.659Z,11.87
2018-12-22T06:54:50.618Z,11.89
2018-12-22T06:55:50.612Z,11.93
2018-12-22T06:56:50.594Z,11.91
2018-12-22T06:57:50.588Z,11.88
2018-12-22T06:58:50.571Z,11.95
2018-12-22T06:59:52.022Z,11.95
2018-12-22T07:00:50.550Z,11.85
2018-12-22T07:01:50.535Z,11.96
2018-12-22T07:02:50.537Z,11.85
2018-12-22T07:03:50.519Z,11.62
2018-12-22T07:04:50.511Z,11.52
2018-12-22T07:05:50.531Z,11.31
2018-12-22T07:06:50.484Z,11.08
2018-12-22T07:07:50.484Z,10.83
2018-12-22T07:08:50.502Z,10.82
2018-12-22T07:09:50.467Z,10.58
2018-12-22T07:10:50.445Z,10.55
2018-12-22T07:11:50.432Z,10.45
2018-12-22T07:12:50.445Z,10.39
2018-12-22T07:13:50.406Z,10.36
2018-12-22T07:14:50.406Z,10.26
2018-12-22T07:15:50.395Z,10.26
2018-12-22T07:16:50.384Z,10.18
2018-12-22T07:17:50.362Z,10.01
2018-12-22T07:18:50.383Z,9.98
2018-12-22T07:19:50.339Z,9.83
2018-12-22T07:20:50.332Z,9.69
2018-12-22T07:21:50.326Z,9.60
2018-12-22T07:22:50.323Z,9.59
2018-12-22T07:23:50.296Z,9.50
2018-12-22T07:24:50.317Z,9.41
2018-12-22T07:25:50.272Z,9.32
2018-12-22T07:26:50.272Z,9.32
2018-12-22T07:27:50.245Z,9.22
2018-12-22T07:28:50.246Z,9.22
2018-12-22T07:29:50.226Z,9.11
2018-12-22T07:30:50.251Z,9.24
2018-12-22T07:31:50.321Z,9.24
2018-12-22T07:32:56.896Z,9.26
2018-12-22T07:33:51.257Z,9.16
2018-12-22T07:34:50.174Z,9.12
2018-12-22T07:35:50.185Z,9.22
2018-12-22T07:36:50.177Z,9.06
2018-12-22T07:37:50.154Z,9.08
2018-12-22T07:38:50.188Z,9.14
2018-12-22T07:39:50.119Z,9.03
2018-12-22T07:40:50.124Z,9.12
2018-12-22T07:41:50.090Z,9.14
2018-12-22T07:42:50.087Z,9.06
2018-12-22T07:43:50.072Z,9.08
2018-12-22T07:44:50.102Z,9.04
2018-12-22T07:45:50.050Z,9.12
2018-12-22T07:46:50.074Z,9.11
2018-12-22T07:47:50.296Z,9.03
2018-12-22T07:48:50.038Z,9.04
2018-12-22T07:49:50.006Z,9.08
2018-12-22T07:50:49.995Z,9.19
2018-12-22T07:51:49.990Z,9.15
2018-12-22T07:52:51.726Z,9.11
2018-12-22T07:53:49.997Z,9.18
2018-12-22T07:54:49.946Z,9.16
2018-12-22T07:55:49.977Z,9.23
2018-12-22T07:56:49.927Z,9.29
2018-12-22T07:57:49.914Z,9.54
2018-12-22T07:58:49.899Z,9.62
2018-12-22T07:59:49.889Z,9.66
2018-12-22T08:00:49.883Z,9.62
2018-12-22T08:01:49.897Z,9.59
2018-12-22T08:02:49.858Z,9.55
2018-12-22T08:03:49.846Z,9.66
2018-12-22T08:04:49.842Z,9.66
2018-12-22T08:05:49.819Z,9.62
2018-12-22T08:06:49.808Z,9.65
2018-12-22T08:07:49.850Z,9.70
2018-12-22T08:08:49.794Z,9.73
2018-12-22T08:09:49.779Z,9.63
2018-12-22T08:10:49.771Z,9.55
2018-12-22T08:11:49.756Z,9.55
2018-12-22T08:12:49.746Z,9.57
2018-12-22T08:13:49.794Z,9.51
2018-12-22T08:14:49.774Z,9.50
2018-12-22T08:15:49.712Z,9.47
2018-12-22T08:16:49.696Z,9.45
2018-12-22T08:17:49.692Z,9.50
2018-12-22T08:18:49.705Z,9.50
2018-12-22T08:19:49.709Z,9.44
2018-12-22T08:20:49.657Z,9.44
2018-12-22T08:21:49.643Z,9.47
2018-12-22T08:22:49.636Z,9.50
2018-12-22T08:23:49.711Z,9.54
2018-12-22T08:24:49.717Z,9.62
2018-12-22T08:25:49.630Z,9.50
2018-12-22T08:26:49.590Z,9.52
2018-12-22T08:27:49.576Z,9.55
2018-12-22T08:28:49.569Z,9.57
2018-12-22T08:29:49.597Z,9.55
2018-12-22T08:30:49.580Z,9.63
2018-12-22T08:31:49.531Z,9.51
2018-12-22T08:32:49.521Z,9.55
2018-12-22T08:33:49.508Z,9.50
2018-12-22T08:34:49.496Z,9.47
2018-12-22T08:35:49.485Z,9.48
2018-12-22T08:36:49.512Z,9.47
2018-12-22T08:37:49.461Z,9.45
2018-12-22T08:38:49.495Z,9.51
2018-12-22T08:39:49.495Z,9.51
2018-12-22T08:40:49.429Z,9.52
2018-12-22T08:41:49.420Z,9.52
2018-12-22T08:42:49.444Z,9.60
2018-12-22T08:43:49.402Z,9.55
2018-12-22T08:44:49.386Z,9.55
2018-12-22T08:45:49.375Z,9.55
2018-12-22T08:46:49.412Z,9.65
2018-12-22T08:47:49.359Z,9.66
2018-12-22T08:48:49.353Z,9.62
2018-12-22T08:49:49.332Z,9.62
2018-12-22T08:50:49.331Z,9.63
2018-12-22T08:51:49.307Z,9.70
2018-12-22T08:52:49.344Z,9.81
2018-12-22T08:53:49.284Z,9.81
2018-12-22T08:54:49.313Z,9.80
2018-12-22T08:55:49.264Z,9.78
2018-12-22T08:56:49.251Z,9.78
2018-12-22T08:57:49.238Z,9.72
2018-12-22T08:58:49.230Z,9.69
2018-12-22T08:59:49.223Z,9.73
2018-12-22T09:00:52.358Z,9.67
2018-12-22T09:01:49.199Z,9.80
2018-12-22T09:02:49.187Z,9.91
2018-12-22T09:03:49.170Z,9.81
2018-12-22T09:04:49.162Z,9.75
2018-12-22T09:05:49.166Z,9.69
2018-12-22T09:06:49.348Z,9.72
2018-12-22T09:07:49.141Z,9.81
2018-12-22T09:08:49.122Z,9.72
2018-12-22T09:09:49.101Z,9.73
2018-12-22T09:10:49.098Z,9.85
2018-12-22T09:11:49.084Z,9.87
2018-12-22T09:12:49.105Z,9.83
2018-12-22T09:13:49.109Z,9.81
2018-12-22T09:14:49.054Z,9.78
2018-12-22T09:15:49.041Z,9.88
2018-12-22T09:16:49.038Z,9.91
2018-12-22T09:17:49.057Z,9.80
2018-12-22T09:18:49.007Z,9.87
2018-12-22T09:19:48.993Z,9.80
2018-12-22T09:20:48.985Z,9.69
2018-12-22T09:21:48.977Z,9.73
2018-12-22T09:22:48.959Z,9.80
2018-12-22T09:23:49.010Z,9.72
2018-12-22T09:24:48.936Z,9.75
2018-12-22T09:25:48.956Z,9.67
2018-12-22T09:26:48.921Z,9.70
2018-12-22T09:27:48.906Z,9.66
2018-12-22T09:28:48.891Z,9.70
2018-12-22T09:29:48.950Z,9.70
2018-12-22T09:30:48.985Z,9.77
2018-12-22T09:31:48.856Z,9.69
2018-12-22T09:32:48.847Z,9.73
2018-12-22T09:33:48.839Z,9.73
2018-12-22T09:34:48.833Z,9.70
2018-12-22T09:35:48.862Z,9.69
2018-12-22T09:36:48.808Z,9.67
2018-12-22T09:37:48.789Z,9.78
2018-12-22T09:38:48.819Z,9.77
2018-12-22T09:39:48.769Z,9.69
2018-12-22T09:40:48.758Z,9.67
2018-12-22T09:41:48.801Z,9.84
2018-12-22T09:42:48.747Z,9.77
2018-12-22T09:43:48.733Z,9.73
2018-12-22T09:44:48.713Z,9.70
2018-12-22T09:45:48.702Z,9.67
2018-12-22T09:46:48.694Z,9.63
2018-12-22T09:47:48.739Z,9.65
2018-12-22T09:48:48.685Z,9.60
2018-12-22T09:49:48.665Z,9.50
2018-12-22T09:50:48.659Z,9.47
2018-12-22T09:51:48.647Z,9.40
2018-12-22T09:52:48.624Z,9.40
2018-12-22T09:53:48.856Z,9.33
2018-12-22T09:54:48.599Z,9.34
2018-12-22T09:55:48.591Z,9.32
2018-12-22T09:56:48.590Z,9.34
2018-12-22T09:57:48.631Z,9.42
2018-12-22T09:58:48.564Z,9.36
2018-12-22T09:59:48.554Z,9.36
2018-12-22T10:00:48.532Z,9.48
2018-12-22T10:01:48.521Z,9.37
2018-12-22T10:02:48.511Z,9.32
2018-12-22T10:03:48.556Z,9.33
2018-12-22T10:04:48.489Z,9.37
2018-12-22T10:05:48.489Z,9.54
2018-12-22T10:06:48.487Z,9.59
2018-12-22T10:07:48.503Z,9.57
2018-12-22T10:08:48.461Z,9.55
2018-12-22T10:09:48.445Z,9.57
2018-12-22T10:10:48.468Z,9.55
2018-12-22T10:11:48.424Z,9.62
2018-12-22T10:12:48.455Z,9.60
2018-12-22T10:13:48.395Z,9.63
2018-12-22T10:14:48.377Z,9.63
2018-12-22T10:15:48.367Z,9.57
2018-12-22T10:16:48.376Z,9.59
2018-12-22T10:17:48.356Z,9.60
2018-12-22T10:18:48.417Z,9.59
2018-12-22T10:19:48.381Z,9.50
2018-12-22T10:20:48.307Z,9.50
2018-12-22T10:21:48.297Z,9.45
2018-12-22T10:22:48.287Z,9.50
2018-12-22T10:23:48.283Z,9.50
2018-12-22T10:24:48.275Z,9.47
2018-12-22T10:25:48.287Z,9.50
2018-12-22T10:26:48.249Z,9.47
2018-12-22T10:27:48.265Z,9.44
2018-12-22T10:28:48.263Z,9.45
2018-12-22T10:29:48.207Z,9.47
2018-12-22T10:30:48.201Z,9.50
2018-12-22T10:31:48.193Z,9.48
2018-12-22T10:32:48.190Z,9.45
2018-12-22T10:33:48.167Z,9.45
2018-12-22T10:34:48.222Z,9.48
2018-12-22T10:35:48.161Z,9.44
2018-12-22T10:36:48.136Z,9.44
2018-12-22T10:37:48.120Z,9.34
2018-12-22T10:38:48.108Z,9.36
2018-12-22T10:39:48.097Z,9.27
2018-12-22T10:40:48.134Z,9.29
2018-12-22T10:41:48.084Z,9.29
2018-12-22T10:42:48.062Z,9.26
2018-12-22T10:43:48.048Z,9.26
2018-12-22T10:44:48.038Z,9.27
2018-12-22T10:45:48.082Z,9.29
2018-12-22T10:46:48.034Z,9.33
2018-12-22T10:47:48.009Z,9.33
2018-12-22T10:48:47.993Z,9.37
2018-12-22T10:49:47.984Z,9.48
2018-12-22T10:50:47.970Z,9.45
2018-12-22T10:51:47.999Z,9.50
2018-12-22T10:52:48.854Z,9.42
2018-12-22T10:53:47.942Z,9.52
2018-12-22T10:54:47.934Z,9.54
2018-12-22T10:55:47.916Z,9.55
2018-12-22T10:56:47.901Z,9.55
2018-12-22T10:57:47.954Z,9.60
2018-12-22T10:58:47.883Z,9.67
2018-12-22T10:59:47.874Z,9.75
2018-12-22T11:00:47.869Z,9.73
2018-12-22T11:01:47.851Z,9.72
2018-12-22T11:02:47.904Z,9.72
2018-12-22T11:03:47.825Z,9.88
2018-12-22T11:04:47.814Z,9.78
2018-12-22T11:05:47.825Z,9.69
2018-12-22T11:06:47.825Z,9.83
2018-12-22T11:07:47.781Z,9.80
2018-12-22T11:08:47.779Z,9.88
2018-12-22T11:09:47.770Z,9.75
2018-12-22T11:10:47.748Z,9.96
2018-12-22T11:11:47.741Z,9.94
2018-12-22T11:12:47.800Z,9.91
2018-12-22T11:13:47.712Z,9.81
2018-12-22T11:14:47.707Z,9.84
2018-12-22T11:15:47.709Z,9.83
2018-12-22T11:16:47.683Z,9.93
2018-12-22T11:17:47.665Z,9.85
2018-12-22T11:18:47.828Z,9.85
2018-12-22T11:19:47.649Z,9.88
2018-12-22T11:20:47.639Z,9.96
2018-12-22T11:21:47.623Z,9.99
2018-12-22T11:22:47.624Z,10.01
2018-12-22T11:23:47.602Z,10.08
2018-12-22T11:24:47.645Z,10.08
2018-12-22T11:25:47.580Z,10.12
2018-12-22T11:26:47.568Z,10.14
2018-12-22T11:27:47.559Z,10.14
2018-12-22T11:28:47.557Z,10.23
2018-12-22T11:29:47.533Z,10.30
2018-12-22T11:30:47.580Z,10.27
2018-12-22T11:31:47.509Z,10.43
2018-12-22T11:32:47.502Z,10.43
2018-12-22T11:33:47.494Z,10.41
2018-12-22T11:34:47.477Z,10.55
2018-12-22T11:35:47.465Z,10.61
2018-12-22T11:36:47.508Z,10.64
2018-12-22T11:37:47.449Z,10.67
2018-12-22T11:38:47.432Z,10.78
2018-12-22T11:39:47.427Z,10.76
2018-12-22T11:40:47.411Z,10.75
2018-12-22T11:41:47.422Z,10.79
2018-12-22T11:42:48.011Z,10.65
2018-12-22T11:43:47.384Z,10.73
2018-12-22T11:44:47.424Z,10.75
2018-12-22T11:45:47.355Z,10.60
2018-12-22T11:46:47.349Z,10.55
2018-12-22T11:47:47.336Z,10.52
2018-12-22T11:48:47.322Z,10.52
2018-12-22T11:49:47.314Z,10.52
2018-12-22T11:50:47.350Z,10.61
2018-12-22T11:51:47.290Z,10.55
2018-12-22T11:52:47.286Z,10.55
2018-12-22T11:53:47.328Z,10.55
2018-12-22T11:54:47.255Z,10.60
2018-12-22T11:55:47.243Z,10.72
2018-12-22T11:56:47.239Z,10.78
2018-12-22T11:57:47.220Z,10.76
2018-12-22T11:58:47.214Z,10.78
2018-12-22T11:59:47.240Z,10.76
2018-12-22T12:00:47.192Z,10.82
2018-12-22T12:01:47.188Z,10.85
2018-12-22T12:02:47.168Z,10.83
2018-12-22T12:03:47.160Z,10.90
2018-12-22T12:04:47.197Z,10.91
2018-12-22T12:05:47.190Z,10.85
2018-12-22T12:06:47.124Z,10.90
2018-12-22T12:07:47.112Z,10.86
2018-12-22T12:08:47.098Z,10.86
2018-12-22T12:09:47.089Z,10.93
2018-12-22T12:10:47.079Z,10.85
2018-12-22T12:11:47.112Z,10.91
2018-12-22T12:12:47.057Z,10.83
2018-12-22T12:13:47.108Z,10.86
2018-12-22T12:14:47.030Z,10.94
2018-12-22T12:15:47.026Z,10.87
2018-12-22T12:16:47.010Z,10.83
2018-12-22T12:17:47.002Z,10.91
2018-12-22T12:18:46.991Z,10.93
2018-12-22T12:19:47.024Z,10.98
2018-12-22T12:20:46.976Z,10.94
2018-12-22T12:21:46.962Z,10.95
2018-12-22T12:22:46.940Z,11.05
2018-12-22T12:23:46.941Z,11.04
2018-12-22T12:24:46.922Z,11.00
2018-12-22T12:25:46.960Z,11.03
2018-12-22T12:26:46.901Z,11.01
2018-12-22T12:27:46.948Z,11.09
2018-12-22T12:28:46.879Z,11.08
2018-12-22T12:29:46.885Z,11.05
2018-12-22T12:30:46.857Z,11.04
2018-12-22T12:31:52.087Z,11.19
2018-12-22T12:32:47.886Z,11.27
2018-12-22T12:33:46.817Z,11.19
2018-12-22T12:34:46.876Z,11.16
2018-12-22T12:35:46.816Z,11.16
2018-12-22T12:36:46.797Z,11.27
2018-12-22T12:37:46.776Z,11.33
2018-12-22T12:38:46.768Z,11.33
2018-12-22T12:39:46.765Z,11.30
2018-12-22T12:40:46.797Z,11.34
2018-12-22T12:41:46.733Z,11.43
2018-12-22T12:42:46.775Z,11.48
2018-12-22T12:43:46.718Z,11.46
2018-12-22T12:44:46.705Z,11.43
2018-12-22T12:45:46.766Z,11.46
2018-12-22T12:46:46.681Z,11.55
2018-12-22T12:47:46.666Z,11.56
2018-12-22T12:48:46.711Z,11.62
2018-12-22T12:49:46.652Z,11.66
2018-12-22T12:50:47.889Z,11.66
2018-12-22T12:51:46.629Z,11.58
2018-12-22T12:52:46.615Z,11.62
2018-12-22T12:53:46.835Z,11.66
2018-12-22T12:54:46.654Z,11.61
2018-12-22T12:55:46.579Z,11.66
2018-12-22T12:56:46.591Z,11.55
2018-12-22T12:57:46.562Z,11.62
2018-12-22T12:58:46.550Z,11.61
2018-12-22T12:59:46.546Z,11.58
2018-12-22T13:00:46.591Z,11.59